sensor_id;sensor_type;location;lat;lon;timestamp;temperature;humidity
19000;DHT22;9633;50.980;13.850;2023-07-31T00:00:34;13.90;99.90
19000;DHT22;9633;50.980;13.850;2023-07-31T00:02:06;13.90;99.90
19000;DHT22;9633;50.980;13.850;2023-07-31T00:03:39;14.00;99.90
19000;DHT22;9633;50.980;13.850;2023-07-31T00:05:12;14.10;99.90
19000;DHT22;9633;50.980;13.850;2023-07-31T00:06:45;14.10;99.90
19000;DHT22;9633;50.980;13.850;2023-07-31T00:08:17;14.10;99.90
19000;DHT22;9633;50.980;13.850;2023-07-31T00:09:51;14.10;99.90
19000;DHT22;9633;50.980;13.850;2023-07-31T00:11:25;14.00;99.90
19000;DHT22;9633;50.980;13.850;2023-07-31T00:12:58;14.00;99.90
19000;DHT22;9633;50.980;13.850;2023-07-31T00:14:32;13.90;99.90
19000;DHT22;9633;50.980;13.850;2023-07-31T00:16:04;13.80;99.90
19000;DHT22;9633;50.980;13.850;2023-07-31T00:17:37;13.70;99.90
19000;DHT22;9633;50.980;13.850;2023-07-31T00:19:09;13.70;99.90
19000;DHT22;9633;50.980;13.850;2023-07-31T00:20:42;13.80;99.90
19000;DHT22;9633;50.980;13.850;2023-07-31T00:22:15;13.70;99.90
19000;DHT22;9633;50.980;13.850;2023-07-31T00:23:48;13.60;99.90
19000;DHT22;9633;50.980;13.850;2023-07-31T00:25:20;13.70;99.90
19000;DHT22;9633;50.980;13.850;2023-07-31T00:26:53;13.70;99.90
19000;DHT22;9633;50.980;13.850;2023-07-31T00:28:28;13.80;99.90
19000;DHT22;9633;50.980;13.850;2023-07-31T00:30:01;13.60;99.90
19000;DHT22;9633;50.980;13.850;2023-07-31T00:31:34;13.50;99.90
19000;DHT22;9633;50.980;13.850;2023-07-31T00:33:06;13.60;99.90
19000;DHT22;9633;50.980;13.850;2023-07-31T00:34:41;13.40;99.90
19000;DHT22;9633;50.980;13.850;2023-07-31T00:36:14;13.50;99.90
19000;DHT22;9633;50.980;13.850;2023-07-31T00:37:47;13.60;99.90
19000;DHT22;9633;50.980;13.850;2023-07-31T00:39:19;13.60;99.90
19000;DHT22;9633;50.980;13.850;2023-07-31T00:40:52;13.60;99.90
19000;DHT22;9633;50.980;13.850;2023-07-31T00:42:25;13.70;99.90
19000;DHT22;9633;50.980;13.850;2023-07-31T00:43:59;13.70;99.90
19000;DHT22;9633;50.980;13.850;2023-07-31T00:45:32;13.80;99.90
19000;DHT22;9633;50.980;13.850;2023-07-31T00:47:05;13.90;99.90
19000;DHT22;9633;50.980;13.850;2023-07-31T00:48:39;13.90;99.90
19000;DHT22;9633;50.980;13.850;2023-07-31T00:50:12;13.90;99.90
19000;DHT22;9633;50.980;13.850;2023-07-31T00:51:46;13.90;99.90
19000;DHT22;9633;50.980;13.850;2023-07-31T00:53:18;14.00;99.90
19000;DHT22;9633;50.980;13.850;2023-07-31T00:54:52;14.20;99.90
19000;DHT22;9633;50.980;13.850;2023-07-31T00:56:25;14.30;99.90
19000;DHT22;9633;50.980;13.850;2023-07-31T00:57:59;14.40;99.90
19000;DHT22;9633;50.980;13.850;2023-07-31T00:59:32;14.50;99.90
19000;DHT22;9633;50.980;13.850;2023-07-31T01:01:07;14.60;99.90
19000;DHT22;9633;50.980;13.850;2023-07-31T01:02:39;14.70;99.90
19000;DHT22;9633;50.980;13.850;2023-07-31T01:04:13;14.80;99.90
19000;DHT22;9633;50.980;13.850;2023-07-31T01:05:52;14.90;99.90
19000;DHT22;9633;50.980;13.850;2023-07-31T01:07:35;14.90;99.90
19000;DHT22;9633;50.980;13.850;2023-07-31T01:09:19;14.90;99.90
19000;DHT22;9633;50.980;13.850;2023-07-31T01:10:57;14.80;99.90
19000;DHT22;9633;50.980;13.850;2023-07-31T01:12:31;14.90;99.90
19000;DHT22;9633;50.980;13.850;2023-07-31T01:14:05;15.00;99.90
19000;DHT22;9633;50.980;13.850;2023-07-31T01:15:39;15.00;99.90
19000;DHT22;9633;50.980;13.850;2023-07-31T01:17:12;15.00;99.90
19000;DHT22;9633;50.980;13.850;2023-07-31T01:18:44;15.00;99.90
19000;DHT22;9633;50.980;13.850;2023-07-31T01:20:20;15.00;99.90
19000;DHT22;9633;50.980;13.850;2023-07-31T01:22:10;15.00;99.90
19000;DHT22;9633;50.980;13.850;2023-07-31T01:24:20;15.00;99.90
19000;DHT22;9633;50.980;13.850;2023-07-31T01:26:11;15.00;99.90
19000;DHT22;9633;50.980;13.850;2023-07-31T01:27:49;15.10;99.90
19000;DHT22;9633;50.980;13.850;2023-07-31T01:29:29;15.10;99.90
19000;DHT22;9633;50.980;13.850;2023-07-31T01:31:07;15.20;99.90
19000;DHT22;9633;50.980;13.850;2023-07-31T01:32:43;15.10;99.90
19000;DHT22;9633;50.980;13.850;2023-07-31T01:34:17;15.10;99.90
19000;DHT22;9633;50.980;13.850;2023-07-31T01:35:50;15.10;99.90
19000;DHT22;9633;50.980;13.850;2023-07-31T01:37:28;15.10;99.90
19000;DHT22;9633;50.980;13.850;2023-07-31T01:39:02;15.00;99.90
19000;DHT22;9633;50.980;13.850;2023-07-31T01:40:35;15.00;99.90
19000;DHT22;9633;50.980;13.850;2023-07-31T01:42:10;15.00;99.90
19000;DHT22;9633;50.980;13.850;2023-07-31T01:43:42;15.10;99.90
19000;DHT22;9633;50.980;13.850;2023-07-31T01:45:15;15.10;99.90
19000;DHT22;9633;50.980;13.850;2023-07-31T01:46:47;15.10;99.90
19000;DHT22;9633;50.980;13.850;2023-07-31T01:48:21;15.20;99.90
19000;DHT22;9633;50.980;13.850;2023-07-31T01:49:53;15.20;99.90
19000;DHT22;9633;50.980;13.850;2023-07-31T01:51:26;15.20;99.90
19000;DHT22;9633;50.980;13.850;2023-07-31T01:52:58;15.50;99.90
19000;DHT22;9633;50.980;13.850;2023-07-31T01:54:31;15.80;99.90
19000;DHT22;9633;50.980;13.850;2023-07-31T01:56:04;15.90;99.90
19000;DHT22;9633;50.980;13.850;2023-07-31T01:57:40;16.00;99.90
19000;DHT22;9633;50.980;13.850;2023-07-31T01:59:12;16.10;99.90
19000;DHT22;9633;50.980;13.850;2023-07-31T02:00:45;16.20;99.90
19000;DHT22;9633;50.980;13.850;2023-07-31T02:02:18;16.30;99.90
19000;DHT22;9633;50.980;13.850;2023-07-31T02:03:51;16.40;99.90
19000;DHT22;9633;50.980;13.850;2023-07-31T02:05:27;16.40;99.90
19000;DHT22;9633;50.980;13.850;2023-07-31T02:07:00;16.50;99.90
19000;DHT22;9633;50.980;13.850;2023-07-31T02:08:32;16.60;99.90
19000;DHT22;9633;50.980;13.850;2023-07-31T02:10:06;16.60;99.90
19000;DHT22;9633;50.980;13.850;2023-07-31T02:11:40;16.60;99.90
19000;DHT22;9633;50.980;13.850;2023-07-31T02:13:15;16.60;99.90
19000;DHT22;9633;50.980;13.850;2023-07-31T02:14:47;16.60;99.90
19000;DHT22;9633;50.980;13.850;2023-07-31T02:16:21;16.70;99.90
19000;DHT22;9633;50.980;13.850;2023-07-31T02:17:53;16.80;99.90
19000;DHT22;9633;50.980;13.850;2023-07-31T02:19:26;16.90;99.90
19000;DHT22;9633;50.980;13.850;2023-07-31T02:20:59;17.00;99.90
19000;DHT22;9633;50.980;13.850;2023-07-31T02:22:31;17.00;99.90
19000;DHT22;9633;50.980;13.850;2023-07-31T02:24:05;17.00;99.90
19000;DHT22;9633;50.980;13.850;2023-07-31T02:25:37;17.00;99.90
19000;DHT22;9633;50.980;13.850;2023-07-31T02:27:10;17.00;99.90
19000;DHT22;9633;50.980;13.850;2023-07-31T02:28:44;17.00;99.90
19000;DHT22;9633;50.980;13.850;2023-07-31T02:30:17;17.10;99.90
19000;DHT22;9633;50.980;13.850;2023-07-31T02:31:49;17.10;99.90
19000;DHT22;9633;50.980;13.850;2023-07-31T02:33:22;17.10;99.90
19000;DHT22;9633;50.980;13.850;2023-07-31T02:34:55;17.10;99.90
19000;DHT22;9633;50.980;13.850;2023-07-31T02:36:29;17.10;99.90
19000;DHT22;9633;50.980;13.850;2023-07-31T02:38:02;17.20;99.90
19000;DHT22;9633;50.980;13.850;2023-07-31T02:39:34;17.20;99.90
19000;DHT22;9633;50.980;13.850;2023-07-31T02:41:07;17.20;99.90
19000;DHT22;9633;50.980;13.850;2023-07-31T02:42:40;17.20;99.90
19000;DHT22;9633;50.980;13.850;2023-07-31T02:44:14;17.20;99.90
19000;DHT22;9633;50.980;13.850;2023-07-31T02:45:51;17.30;99.90
19000;DHT22;9633;50.980;13.850;2023-07-31T02:47:23;17.30;99.90
19000;DHT22;9633;50.980;13.850;2023-07-31T02:48:56;17.40;99.90
19000;DHT22;9633;50.980;13.850;2023-07-31T02:50:29;17.40;99.90
19000;DHT22;9633;50.980;13.850;2023-07-31T02:52:04;17.40;99.90
19000;DHT22;9633;50.980;13.850;2023-07-31T02:53:37;17.40;99.90
19000;DHT22;9633;50.980;13.850;2023-07-31T02:55:09;17.40;98.20
19000;DHT22;9633;50.980;13.850;2023-07-31T02:56:42;17.50;99.90
19000;DHT22;9633;50.980;13.850;2023-07-31T02:58:16;17.40;99.90
19000;DHT22;9633;50.980;13.850;2023-07-31T02:59:49;17.30;99.90
19000;DHT22;9633;50.980;13.850;2023-07-31T03:01:23;17.30;99.90
19000;DHT22;9633;50.980;13.850;2023-07-31T03:02:55;17.40;78.10
19000;DHT22;9633;50.980;13.850;2023-07-31T03:04:28;17.40;99.90
19000;DHT22;9633;50.980;13.850;2023-07-31T03:06:01;17.30;99.90
19000;DHT22;9633;50.980;13.850;2023-07-31T03:07:34;17.40;56.40
19000;DHT22;9633;50.980;13.850;2023-07-31T03:09:06;17.50;93.20
19000;DHT22;9633;50.980;13.850;2023-07-31T03:10:39;17.50;25.70
19000;DHT22;9633;50.980;13.850;2023-07-31T03:12:11;17.60;7.50
19000;DHT22;9633;50.980;13.850;2023-07-31T03:13:44;17.60;1.00
19000;DHT22;9633;50.980;13.850;2023-07-31T03:15:18;17.60;60.50
19000;DHT22;9633;50.980;13.850;2023-07-31T03:16:51;17.70;4.50
19000;DHT22;9633;50.980;13.850;2023-07-31T03:18:23;17.70;33.70
19000;DHT22;9633;50.980;13.850;2023-07-31T03:19:57;17.60;11.50
19000;DHT22;9633;50.980;13.850;2023-07-31T03:21:29;17.70;1.00
19000;DHT22;9633;50.980;13.850;2023-07-31T03:23:02;17.70;24.70
19000;DHT22;9633;50.980;13.850;2023-07-31T03:24:35;17.70;1.00
19000;DHT22;9633;50.980;13.850;2023-07-31T03:26:08;17.70;93.70
19000;DHT22;9633;50.980;13.850;2023-07-31T03:27:41;17.70;97.00
19000;DHT22;9633;50.980;13.850;2023-07-31T03:29:14;17.60;87.20
19000;DHT22;9633;50.980;13.850;2023-07-31T03:30:48;17.70;75.90
19000;DHT22;9633;50.980;13.850;2023-07-31T03:32:21;17.60;37.20
19000;DHT22;9633;50.980;13.850;2023-07-31T03:33:53;17.60;49.10
19000;DHT22;9633;50.980;13.850;2023-07-31T03:35:26;17.70;99.90
19000;DHT22;9633;50.980;13.850;2023-07-31T03:36:59;17.60;95.00
19000;DHT22;9633;50.980;13.850;2023-07-31T03:38:33;17.60;75.20
19000;DHT22;9633;50.980;13.850;2023-07-31T03:40:06;17.60;93.70
19000;DHT22;9633;50.980;13.850;2023-07-31T03:41:40;17.60;99.90
19000;DHT22;9633;50.980;13.850;2023-07-31T03:43:13;17.60;99.90
19000;DHT22;9633;50.980;13.850;2023-07-31T03:44:47;17.60;99.90
19000;DHT22;9633;50.980;13.850;2023-07-31T03:46:23;17.50;99.90
19000;DHT22;9633;50.980;13.850;2023-07-31T03:47:55;17.60;99.90
19000;DHT22;9633;50.980;13.850;2023-07-31T03:49:30;17.50;99.90
19000;DHT22;9633;50.980;13.850;2023-07-31T03:51:02;17.40;99.90
19000;DHT22;9633;50.980;13.850;2023-07-31T03:52:36;17.40;99.90
19000;DHT22;9633;50.980;13.850;2023-07-31T03:54:09;17.50;99.90
19000;DHT22;9633;50.980;13.850;2023-07-31T03:55:41;17.40;99.90
19000;DHT22;9633;50.980;13.850;2023-07-31T03:57:14;17.40;99.90
19000;DHT22;9633;50.980;13.850;2023-07-31T03:58:48;17.40;99.90
19000;DHT22;9633;50.980;13.850;2023-07-31T04:00:21;17.30;99.90
19000;DHT22;9633;50.980;13.850;2023-07-31T04:01:56;17.20;99.90
19000;DHT22;9633;50.980;13.850;2023-07-31T04:03:29;17.20;99.90
19000;DHT22;9633;50.980;13.850;2023-07-31T04:05:02;17.20;99.90
19000;DHT22;9633;50.980;13.850;2023-07-31T04:06:35;17.20;99.90
19000;DHT22;9633;50.980;13.850;2023-07-31T04:08:08;17.20;99.90
19000;DHT22;9633;50.980;13.850;2023-07-31T04:09:41;17.10;99.90
19000;DHT22;9633;50.980;13.850;2023-07-31T04:11:14;17.10;99.90
19000;DHT22;9633;50.980;13.850;2023-07-31T04:12:46;17.00;99.90
19000;DHT22;9633;50.980;13.850;2023-07-31T04:14:19;17.00;99.90
19000;DHT22;9633;50.980;13.850;2023-07-31T04:15:52;17.00;99.90
19000;DHT22;9633;50.980;13.850;2023-07-31T04:17:27;16.90;99.90
19000;DHT22;9633;50.980;13.850;2023-07-31T04:19:00;16.80;99.90
19000;DHT22;9633;50.980;13.850;2023-07-31T04:20:34;16.70;99.90
19000;DHT22;9633;50.980;13.850;2023-07-31T04:22:06;16.70;99.90
19000;DHT22;9633;50.980;13.850;2023-07-31T04:23:39;16.70;99.90
19000;DHT22;9633;50.980;13.850;2023-07-31T04:25:13;16.70;99.90
19000;DHT22;9633;50.980;13.850;2023-07-31T04:26:45;16.70;99.90
19000;DHT22;9633;50.980;13.850;2023-07-31T04:28:18;16.60;99.90
19000;DHT22;9633;50.980;13.850;2023-07-31T04:29:50;16.60;99.90
19000;DHT22;9633;50.980;13.850;2023-07-31T04:31:24;16.50;99.90
19000;DHT22;9633;50.980;13.850;2023-07-31T04:32:58;16.50;99.90
19000;DHT22;9633;50.980;13.850;2023-07-31T04:34:30;16.50;99.90
19000;DHT22;9633;50.980;13.850;2023-07-31T04:36:04;16.40;99.90
19000;DHT22;9633;50.980;13.850;2023-07-31T04:37:36;16.40;99.90
19000;DHT22;9633;50.980;13.850;2023-07-31T04:39:10;16.40;99.90
19000;DHT22;9633;50.980;13.850;2023-07-31T04:40:42;16.30;99.90
19000;DHT22;9633;50.980;13.850;2023-07-31T04:42:15;16.30;99.90
19000;DHT22;9633;50.980;13.850;2023-07-31T04:43:47;16.30;99.90
19000;DHT22;9633;50.980;13.850;2023-07-31T04:45:21;16.30;99.90
19000;DHT22;9633;50.980;13.850;2023-07-31T04:46:53;16.20;99.90
19000;DHT22;9633;50.980;13.850;2023-07-31T04:48:27;16.20;99.90
19000;DHT22;9633;50.980;13.850;2023-07-31T04:50:01;16.20;99.90
19000;DHT22;9633;50.980;13.850;2023-07-31T04:51:33;16.20;99.90
19000;DHT22;9633;50.980;13.850;2023-07-31T04:53:06;16.20;99.90
19000;DHT22;9633;50.980;13.850;2023-07-31T04:54:38;16.30;99.90
19000;DHT22;9633;50.980;13.850;2023-07-31T04:56:11;16.30;99.90
19000;DHT22;9633;50.980;13.850;2023-07-31T04:57:44;16.30;99.90
19000;DHT22;9633;50.980;13.850;2023-07-31T04:59:17;16.30;99.90
19000;DHT22;9633;50.980;13.850;2023-07-31T05:00:49;16.40;99.90
19000;DHT22;9633;50.980;13.850;2023-07-31T05:02:22;16.40;99.90
19000;DHT22;9633;50.980;13.850;2023-07-31T05:03:58;16.30;99.90
19000;DHT22;9633;50.980;13.850;2023-07-31T05:05:31;16.40;99.90
19000;DHT22;9633;50.980;13.850;2023-07-31T05:07:05;16.50;99.90
19000;DHT22;9633;50.980;13.850;2023-07-31T05:08:37;16.50;99.90
19000;DHT22;9633;50.980;13.850;2023-07-31T05:10:10;16.60;99.90
19000;DHT22;9633;50.980;13.850;2023-07-31T05:11:42;16.60;99.90
19000;DHT22;9633;50.980;13.850;2023-07-31T05:13:15;16.60;99.90
19000;DHT22;9633;50.980;13.850;2023-07-31T05:14:48;16.60;99.90
19000;DHT22;9633;50.980;13.850;2023-07-31T05:16:21;16.60;99.90
19000;DHT22;9633;50.980;13.850;2023-07-31T05:17:54;16.60;99.90
19000;DHT22;9633;50.980;13.850;2023-07-31T05:19:28;16.60;99.90
19000;DHT22;9633;50.980;13.850;2023-07-31T05:21:01;16.70;99.90
19000;DHT22;9633;50.980;13.850;2023-07-31T05:22:34;16.70;99.90
19000;DHT22;9633;50.980;13.850;2023-07-31T05:24:06;16.70;99.90
19000;DHT22;9633;50.980;13.850;2023-07-31T05:25:39;16.80;99.90
19000;DHT22;9633;50.980;13.850;2023-07-31T05:27:12;16.80;99.90
19000;DHT22;9633;50.980;13.850;2023-07-31T05:28:46;16.90;99.90
19000;DHT22;9633;50.980;13.850;2023-07-31T05:30:18;16.90;99.90
19000;DHT22;9633;50.980;13.850;2023-07-31T05:31:53;16.90;99.90
19000;DHT22;9633;50.980;13.850;2023-07-31T05:33:25;17.00;99.90
19000;DHT22;9633;50.980;13.850;2023-07-31T05:35:00;17.00;99.90
19000;DHT22;9633;50.980;13.850;2023-07-31T05:36:32;17.00;99.90
19000;DHT22;9633;50.980;13.850;2023-07-31T05:38:05;17.00;99.90
19000;DHT22;9633;50.980;13.850;2023-07-31T05:39:37;17.10;99.90
19000;DHT22;9633;50.980;13.850;2023-07-31T05:41:11;17.10;99.90
19000;DHT22;9633;50.980;13.850;2023-07-31T05:42:43;17.20;99.90
19000;DHT22;9633;50.980;13.850;2023-07-31T05:44:16;17.20;99.90
19000;DHT22;9633;50.980;13.850;2023-07-31T05:45:49;17.20;99.90
19000;DHT22;9633;50.980;13.850;2023-07-31T05:47:22;17.30;99.90
19000;DHT22;9633;50.980;13.850;2023-07-31T05:48:55;17.30;99.90
19000;DHT22;9633;50.980;13.850;2023-07-31T05:50:29;17.40;99.90
19000;DHT22;9633;50.980;13.850;2023-07-31T05:52:03;17.30;99.90
19000;DHT22;9633;50.980;13.850;2023-07-31T05:53:35;17.40;99.90
19000;DHT22;9633;50.980;13.850;2023-07-31T05:55:12;17.40;99.90
19000;DHT22;9633;50.980;13.850;2023-07-31T05:56:45;17.50;99.90
19000;DHT22;9633;50.980;13.850;2023-07-31T05:58:18;17.50;99.90
19000;DHT22;9633;50.980;13.850;2023-07-31T05:59:50;17.60;99.90
19000;DHT22;9633;50.980;13.850;2023-07-31T06:01:25;17.60;99.90
19000;DHT22;9633;50.980;13.850;2023-07-31T06:02:57;17.60;99.90
19000;DHT22;9633;50.980;13.850;2023-07-31T06:04:30;17.60;99.90
19000;DHT22;9633;50.980;13.850;2023-07-31T06:06:05;17.50;99.90
19000;DHT22;9633;50.980;13.850;2023-07-31T06:07:37;17.50;99.90
19000;DHT22;9633;50.980;13.850;2023-07-31T06:09:10;17.60;99.90
19000;DHT22;9633;50.980;13.850;2023-07-31T06:10:43;17.50;99.90
19000;DHT22;9633;50.980;13.850;2023-07-31T06:12:17;17.60;99.90
19000;DHT22;9633;50.980;13.850;2023-07-31T06:13:50;17.70;99.90
19000;DHT22;9633;50.980;13.850;2023-07-31T06:15:24;17.70;99.90
19000;DHT22;9633;50.980;13.850;2023-07-31T06:16:56;17.80;99.90
19000;DHT22;9633;50.980;13.850;2023-07-31T06:18:29;17.70;99.90
19000;DHT22;9633;50.980;13.850;2023-07-31T06:20:01;17.80;99.90
19000;DHT22;9633;50.980;13.850;2023-07-31T06:21:38;17.80;99.90
19000;DHT22;9633;50.980;13.850;2023-07-31T06:23:13;17.80;99.90
19000;DHT22;9633;50.980;13.850;2023-07-31T06:24:46;17.90;99.90
19000;DHT22;9633;50.980;13.850;2023-07-31T06:26:19;17.90;99.90
19000;DHT22;9633;50.980;13.850;2023-07-31T06:27:52;17.90;99.90
19000;DHT22;9633;50.980;13.850;2023-07-31T06:29:25;17.90;99.90
19000;DHT22;9633;50.980;13.850;2023-07-31T06:30:58;17.90;99.90
19000;DHT22;9633;50.980;13.850;2023-07-31T06:32:31;17.90;99.90
19000;DHT22;9633;50.980;13.850;2023-07-31T06:34:03;17.90;99.90
19000;DHT22;9633;50.980;13.850;2023-07-31T06:35:37;18.00;99.90
19000;DHT22;9633;50.980;13.850;2023-07-31T06:37:11;18.00;99.90
19000;DHT22;9633;50.980;13.850;2023-07-31T06:38:44;18.10;99.90
19000;DHT22;9633;50.980;13.850;2023-07-31T06:40:17;18.20;99.90
19000;DHT22;9633;50.980;13.850;2023-07-31T06:41:49;18.20;99.90
19000;DHT22;9633;50.980;13.850;2023-07-31T06:43:22;18.20;99.90
19000;DHT22;9633;50.980;13.850;2023-07-31T06:44:56;18.20;99.90
19000;DHT22;9633;50.980;13.850;2023-07-31T06:46:29;18.20;99.90
19000;DHT22;9633;50.980;13.850;2023-07-31T06:48:01;18.20;99.90
19000;DHT22;9633;50.980;13.850;2023-07-31T06:49:35;18.20;99.90
19000;DHT22;9633;50.980;13.850;2023-07-31T06:51:07;18.20;99.90
19000;DHT22;9633;50.980;13.850;2023-07-31T06:52:42;18.20;99.90
19000;DHT22;9633;50.980;13.850;2023-07-31T06:54:16;18.20;99.90
19000;DHT22;9633;50.980;13.850;2023-07-31T06:55:48;18.20;99.90
19000;DHT22;9633;50.980;13.850;2023-07-31T06:57:23;18.30;99.90
19000;DHT22;9633;50.980;13.850;2023-07-31T06:58:56;18.30;99.90
19000;DHT22;9633;50.980;13.850;2023-07-31T07:00:30;18.30;99.90
19000;DHT22;9633;50.980;13.850;2023-07-31T07:02:02;18.40;99.90
19000;DHT22;9633;50.980;13.850;2023-07-31T07:03:38;18.40;99.90
19000;DHT22;9633;50.980;13.850;2023-07-31T07:05:10;18.40;99.90
19000;DHT22;9633;50.980;13.850;2023-07-31T07:06:43;18.30;99.90
19000;DHT22;9633;50.980;13.850;2023-07-31T07:08:17;18.30;99.90
19000;DHT22;9633;50.980;13.850;2023-07-31T07:09:50;18.30;99.90
19000;DHT22;9633;50.980;13.850;2023-07-31T07:11:23;18.30;99.90
19000;DHT22;9633;50.980;13.850;2023-07-31T07:12:56;18.40;99.90
19000;DHT22;9633;50.980;13.850;2023-07-31T07:14:29;18.50;99.90
19000;DHT22;9633;50.980;13.850;2023-07-31T07:16:01;18.60;99.90
19000;DHT22;9633;50.980;13.850;2023-07-31T07:17:35;18.60;99.90
19000;DHT22;9633;50.980;13.850;2023-07-31T07:19:07;18.60;99.90
19000;DHT22;9633;50.980;13.850;2023-07-31T07:20:40;18.70;99.90
19000;DHT22;9633;50.980;13.850;2023-07-31T07:22:13;18.70;99.90
19000;DHT22;9633;50.980;13.850;2023-07-31T07:23:47;18.80;99.90
19000;DHT22;9633;50.980;13.850;2023-07-31T07:25:20;18.90;99.90
19000;DHT22;9633;50.980;13.850;2023-07-31T07:26:52;19.00;99.90
19000;DHT22;9633;50.980;13.850;2023-07-31T07:28:26;19.00;99.90
19000;DHT22;9633;50.980;13.850;2023-07-31T07:30:00;19.00;99.90
19000;DHT22;9633;50.980;13.850;2023-07-31T07:31:33;19.00;99.90
19000;DHT22;9633;50.980;13.850;2023-07-31T07:33:06;19.00;99.90
19000;DHT22;9633;50.980;13.850;2023-07-31T07:34:39;19.00;99.90
19000;DHT22;9633;50.980;13.850;2023-07-31T07:36:11;19.10;99.90
19000;DHT22;9633;50.980;13.850;2023-07-31T07:37:45;19.20;99.90
19000;DHT22;9633;50.980;13.850;2023-07-31T07:39:19;19.30;99.90
19000;DHT22;9633;50.980;13.850;2023-07-31T07:40:52;19.40;99.90
19000;DHT22;9633;50.980;13.850;2023-07-31T07:42:25;19.50;99.90
19000;DHT22;9633;50.980;13.850;2023-07-31T07:43:59;19.60;99.90
19000;DHT22;9633;50.980;13.850;2023-07-31T07:45:31;19.70;99.90
19000;DHT22;9633;50.980;13.850;2023-07-31T07:47:04;19.70;99.90
19000;DHT22;9633;50.980;13.850;2023-07-31T07:48:38;19.60;99.90
19000;DHT22;9633;50.980;13.850;2023-07-31T07:50:11;19.60;99.90
19000;DHT22;9633;50.980;13.850;2023-07-31T07:51:45;19.70;99.90
19000;DHT22;9633;50.980;13.850;2023-07-31T07:53:17;19.60;99.90
19000;DHT22;9633;50.980;13.850;2023-07-31T07:54:52;19.60;99.90
19000;DHT22;9633;50.980;13.850;2023-07-31T07:56:25;19.40;99.90
19000;DHT22;9633;50.980;13.850;2023-07-31T07:57:58;19.40;99.90
19000;DHT22;9633;50.980;13.850;2023-07-31T07:59:30;19.40;99.90
19000;DHT22;9633;50.980;13.850;2023-07-31T08:01:04;19.40;99.90
19000;DHT22;9633;50.980;13.850;2023-07-31T08:02:36;19.40;99.90
19000;DHT22;9633;50.980;13.850;2023-07-31T08:04:09;19.40;99.90
19000;DHT22;9633;50.980;13.850;2023-07-31T08:05:41;19.40;99.90
19000;DHT22;9633;50.980;13.850;2023-07-31T08:07:15;19.50;99.90
19000;DHT22;9633;50.980;13.850;2023-07-31T08:08:47;19.40;99.90
19000;DHT22;9633;50.980;13.850;2023-07-31T08:10:21;19.50;99.90
19000;DHT22;9633;50.980;13.850;2023-07-31T08:11:55;19.50;99.90
19000;DHT22;9633;50.980;13.850;2023-07-31T08:13:29;19.60;99.90
19000;DHT22;9633;50.980;13.850;2023-07-31T08:15:03;19.80;99.90
19000;DHT22;9633;50.980;13.850;2023-07-31T08:16:35;19.90;99.90
19000;DHT22;9633;50.980;13.850;2023-07-31T08:18:10;19.90;99.90
19000;DHT22;9633;50.980;13.850;2023-07-31T08:19:44;20.10;99.90
19000;DHT22;9633;50.980;13.850;2023-07-31T08:21:18;20.10;99.90
19000;DHT22;9633;50.980;13.850;2023-07-31T08:22:50;20.10;99.90
19000;DHT22;9633;50.980;13.850;2023-07-31T08:24:24;20.20;99.90
19000;DHT22;9633;50.980;13.850;2023-07-31T08:25:58;20.50;99.90
19000;DHT22;9633;50.980;13.850;2023-07-31T08:27:31;20.60;1.00
19000;DHT22;9633;50.980;13.850;2023-07-31T08:29:03;20.90;24.50
19000;DHT22;9633;50.980;13.850;2023-07-31T08:30:37;21.10;92.50
19000;DHT22;9633;50.980;13.850;2023-07-31T08:32:09;21.10;1.00
19000;DHT22;9633;50.980;13.850;2023-07-31T08:33:42;21.30;1.00
19000;DHT22;9633;50.980;13.850;2023-07-31T08:35:14;21.40;1.00
19000;DHT22;9633;50.980;13.850;2023-07-31T08:36:47;21.40;1.00
19000;DHT22;9633;50.980;13.850;2023-07-31T08:38:19;21.30;1.00
19000;DHT22;9633;50.980;13.850;2023-07-31T08:39:53;21.20;1.00
19000;DHT22;9633;50.980;13.850;2023-07-31T08:41:27;21.00;1.00
19000;DHT22;9633;50.980;13.850;2023-07-31T08:43:01;21.00;1.00
19000;DHT22;9633;50.980;13.850;2023-07-31T08:44:34;20.90;1.00
19000;DHT22;9633;50.980;13.850;2023-07-31T08:46:08;20.90;1.00
19000;DHT22;9633;50.980;13.850;2023-07-31T08:47:41;20.70;1.00
19000;DHT22;9633;50.980;13.850;2023-07-31T08:49:19;20.70;27.10
19000;DHT22;9633;50.980;13.850;2023-07-31T08:50:52;20.80;8.00
19000;DHT22;9633;50.980;13.850;2023-07-31T08:52:26;20.60;1.00
19000;DHT22;9633;50.980;13.850;2023-07-31T08:53:58;20.60;1.00
19000;DHT22;9633;50.980;13.850;2023-07-31T08:55:32;20.70;1.00
19000;DHT22;9633;50.980;13.850;2023-07-31T08:57:07;20.60;1.00
19000;DHT22;9633;50.980;13.850;2023-07-31T08:58:40;20.50;44.40
19000;DHT22;9633;50.980;13.850;2023-07-31T09:00:14;20.60;42.90
19000;DHT22;9633;50.980;13.850;2023-07-31T09:01:50;20.70;73.80
19000;DHT22;9633;50.980;13.850;2023-07-31T09:03:26;20.80;1.00
19000;DHT22;9633;50.980;13.850;2023-07-31T09:04:59;20.80;57.30
19000;DHT22;9633;50.980;13.850;2023-07-31T09:06:32;20.70;71.90
19000;DHT22;9633;50.980;13.850;2023-07-31T09:08:07;20.60;1.00
19000;DHT22;9633;50.980;13.850;2023-07-31T09:09:41;20.60;1.00
19000;DHT22;9633;50.980;13.850;2023-07-31T09:11:14;20.60;1.00
19000;DHT22;9633;50.980;13.850;2023-07-31T09:12:48;20.40;19.40
19000;DHT22;9633;50.980;13.850;2023-07-31T09:14:22;20.40;44.90
19000;DHT22;9633;50.980;13.850;2023-07-31T09:15:56;20.40;5.60
19000;DHT22;9633;50.980;13.850;2023-07-31T09:17:30;20.40;35.10
19000;DHT22;9633;50.980;13.850;2023-07-31T09:19:03;20.40;52.40
19000;DHT22;9633;50.980;13.850;2023-07-31T09:20:37;20.40;42.80
19000;DHT22;9633;50.980;13.850;2023-07-31T09:22:10;20.40;19.80
19000;DHT22;9633;50.980;13.850;2023-07-31T09:23:44;20.40;21.80
19000;DHT22;9633;50.980;13.850;2023-07-31T09:25:18;20.40;99.90
19000;DHT22;9633;50.980;13.850;2023-07-31T09:26:53;20.40;57.70
19000;DHT22;9633;50.980;13.850;2023-07-31T09:28:32;20.40;4.00
19000;DHT22;9633;50.980;13.850;2023-07-31T09:30:06;20.50;11.70
19000;DHT22;9633;50.980;13.850;2023-07-31T09:31:39;20.40;25.70
19000;DHT22;9633;50.980;13.850;2023-07-31T09:33:13;20.40;21.40
19000;DHT22;9633;50.980;13.850;2023-07-31T09:34:46;20.40;54.80
19000;DHT22;9633;50.980;13.850;2023-07-31T09:36:19;20.40;52.40
19000;DHT22;9633;50.980;13.850;2023-07-31T09:37:52;20.30;1.00
19000;DHT22;9633;50.980;13.850;2023-07-31T09:39:26;20.40;32.20
19000;DHT22;9633;50.980;13.850;2023-07-31T09:40:58;20.40;40.60
19000;DHT22;9633;50.980;13.850;2023-07-31T09:42:34;20.50;7.10
19000;DHT22;9633;50.980;13.850;2023-07-31T09:44:08;20.60;1.00
19000;DHT22;9633;50.980;13.850;2023-07-31T09:45:42;20.60;1.00
19000;DHT22;9633;50.980;13.850;2023-07-31T09:47:22;20.70;1.00
19000;DHT22;9633;50.980;13.850;2023-07-31T09:49:04;20.80;1.00
19000;DHT22;9633;50.980;13.850;2023-07-31T09:50:38;20.80;1.00
19000;DHT22;9633;50.980;13.850;2023-07-31T09:52:11;20.80;1.00